createdAt,value
2022-10-04T00:01:58.503Z,10.00
2022-10-04T00:04:54.590Z,9.68
2022-10-04T00:07:26.985Z,8.82
2022-10-04T00:10:16.094Z,9.60
2022-10-04T00:12:49.951Z,9.30
2022-10-04T00:15:27.451Z,9.73
2022-10-04T00:18:06.263Z,9.73
2022-10-04T00:20:53.860Z,10.05
2022-10-04T00:23:45.271Z,9.43
2022-10-04T00:26:28.598Z,9.95
2022-10-04T00:28:56.985Z,9.30
2022-10-04T00:31:28.059Z,8.35
2022-10-04T00:34:16.648Z,9.43
2022-10-04T00:36:57.264Z,9.45
2022-10-04T00:39:33.937Z,8.50
2022-10-04T00:42:11.331Z,8.52
2022-10-04T00:45:22.108Z,7.85
2022-10-04T00:47:49.841Z,7.97
2022-10-04T00:50:44.347Z,6.93
2022-10-04T00:53:58.835Z,6.20
2022-10-04T00:56:54.029Z,7.88
2022-10-04T00:59:28.510Z,6.38
2022-10-04T01:02:45.638Z,7.15
2022-10-04T01:05:27.414Z,7.15
2022-10-04T01:08:34.166Z,7.13
2022-10-04T01:11:19.490Z,6.25
2022-10-04T01:14:04.727Z,5.07
2022-10-04T01:16:36.613Z,5.03
2022-10-04T01:19:31.481Z,6.15
2022-10-04T01:22:15.347Z,6.10
2022-10-04T01:24:46.217Z,5.72
2022-10-04T01:27:40.169Z,4.53
2022-10-04T01:30:16.951Z,5.32
2022-10-04T01:32:45.551Z,5.28
2022-10-04T01:35:15.528Z,5.78
2022-10-04T01:37:44.031Z,5.75
2022-10-04T01:40:12.215Z,5.13
2022-10-04T01:42:51.339Z,5.30
2022-10-04T01:45:40.333Z,5.00
2022-10-04T01:48:16.074Z,5.45
2022-10-04T01:50:52.455Z,3.17
2022-10-04T01:53:41.629Z,3.65
2022-10-04T01:56:18.547Z,3.65
2022-10-04T01:58:58.776Z,4.45
2022-10-04T02:01:48.482Z,4.20
2022-10-04T02:04:29.601Z,4.70
2022-10-04T02:07:00.822Z,5.00
2022-10-04T02:09:35.862Z,4.80
2022-10-04T02:12:03.796Z,4.78
2022-10-04T02:14:38.307Z,4.05
2022-10-04T02:17:10.647Z,4.63
2022-10-04T02:19:42.704Z,4.30
2022-10-04T02:22:11.622Z,3.47
2022-10-04T02:24:45.430Z,3.55
2022-10-04T02:27:14.158Z,3.55
2022-10-04T02:29:42.668Z,3.10
2022-10-04T02:32:32.674Z,2.67
2022-10-04T02:35:00.679Z,2.67
2022-10-04T02:37:30.178Z,1.90
2022-10-04T02:40:14.290Z,1.48
2022-10-04T02:42:51.938Z,1.85
2022-10-04T02:45:56.791Z,2.00
2022-10-04T02:48:36.907Z,2.13
2022-10-04T02:51:44.806Z,2.33
2022-10-04T02:54:57.029Z,3.70
2022-10-04T02:57:25.455Z,4.13
2022-10-04T03:00:24.798Z,3.78
2022-10-04T03:03:18.140Z,4.80
2022-10-04T03:06:09.474Z,4.63
2022-10-04T03:08:59.382Z,5.03
2022-10-04T03:11:33.877Z,5.45
2022-10-04T03:14:06.445Z,4.72
2022-10-04T03:16:38.763Z,5.25
2022-10-04T03:19:08.562Z,5.57
2022-10-04T03:21:40.866Z,5.38
2022-10-04T03:24:17.138Z,5.13
2022-10-04T03:26:54.797Z,5.22
2022-10-04T03:29:27.699Z,4.70
2022-10-04T03:31:58.378Z,3.47
2022-10-04T03:34:33.702Z,5.03
2022-10-04T03:37:02.761Z,4.65
2022-10-04T03:39:38.179Z,4.25
2022-10-04T03:42:16.681Z,4.50
2022-10-04T03:44:51.868Z,4.20
2022-10-04T03:47:32.661Z,3.65
2022-10-04T03:50:13.213Z,4.50
2022-10-04T03:52:54.828Z,4.97
2022-10-04T03:55:32.670Z,4.40
2022-10-04T03:58:02.623Z,3.88
2022-10-04T04:00:31.759Z,4.28
2022-10-04T04:03:06.477Z,4.55
2022-10-04T04:05:50.205Z,4.45
2022-10-04T04:08:42.472Z,4.15
2022-10-04T04:11:24.885Z,3.50
2022-10-04T04:14:12.018Z,3.85
2022-10-04T04:16:40.687Z,4.20
2022-10-04T04:19:17.176Z,4.13
2022-10-04T04:21:46.597Z,4.00
2022-10-04T04:24:29.809Z,3.88
2022-10-04T04:27:01.622Z,3.65
2022-10-04T04:29:51.051Z,3.92
2022-10-04T04:32:20.882Z,4.00
2022-10-04T04:34:53.138Z,3.90
2022-10-04T04:37:21.255Z,3.28
2022-10-04T04:39:58.050Z,4.03
2022-10-04T04:42:33.451Z,3.85
2022-10-04T04:45:15.561Z,3.38
2022-10-04T04:47:50.534Z,3.10
2022-10-04T04:50:27.541Z,3.78
2022-10-04T04:53:26.159Z,3.60
2022-10-04T04:56:05.052Z,3.25
2022-10-04T04:58:42.112Z,3.10
2022-10-04T05:01:35.597Z,3.17
2022-10-04T05:04:14.714Z,3.45
2022-10-04T05:06:45.889Z,3.55
2022-10-04T05:09:35.554Z,3.13
2022-10-04T05:12:11.522Z,2.47
2022-10-04T05:14:46.444Z,3.17
2022-10-04T05:17:40.703Z,2.85
2022-10-04T05:20:19.757Z,3.00
2022-10-04T05:22:51.626Z,2.47
2022-10-04T05:25:34.050Z,2.60
2022-10-04T05:28:02.805Z,2.38
2022-10-04T05:30:51.911Z,3.10
2022-10-04T05:33:47.212Z,2.40
2022-10-04T05:36:52.839Z,2.60
2022-10-04T05:39:41.509Z,2.47
2022-10-04T05:42:21.441Z,2.33
2022-10-04T05:44:58.429Z,2.58
2022-10-04T05:47:30.754Z,2.50
2022-10-04T05:50:01.198Z,2.70
2022-10-04T05:52:39.685Z,2.30
2022-10-04T05:55:51.470Z,1.67
2022-10-04T05:58:57.832Z,1.67
2022-10-04T06:01:47.921Z,1.83
2022-10-04T06:04:50.065Z,2.33
2022-10-04T06:07:44.549Z,1.90
2022-10-04T06:10:43.495Z,2.30
2022-10-04T06:13:38.007Z,2.47
2022-10-04T06:16:30.585Z,1.92
2022-10-04T06:19:45.192Z,2.67
2022-10-04T06:22:19.259Z,2.20
2022-10-04T06:24:55.573Z,2.72
2022-10-04T06:27:58.247Z,2.10
2022-10-04T06:30:54.100Z,2.40
2022-10-04T06:33:33.785Z,2.38
2022-10-04T06:36:52.133Z,2.33
2022-10-04T06:39:32.466Z,2.22
2022-10-04T06:42:11.942Z,2.72
2022-10-04T06:44:58.520Z,2.83
2022-10-04T06:47:51.103Z,2.55
2022-10-04T06:50:46.141Z,2.65
2022-10-04T06:53:47.428Z,2.55
2022-10-04T06:56:21.479Z,2.17
2022-10-04T06:59:03.260Z,2.70
2022-10-04T07:04:22.463Z,3.10
2022-10-04T07:07:35.635Z,2.50
2022-10-04T07:10:39.231Z,2.33
2022-10-04T07:13:28.328Z,2.30
2022-10-04T07:16:32.807Z,2.60
2022-10-04T07:19:28.546Z,2.40
2022-10-04T07:22:08.705Z,2.17
2022-10-04T07:24:56.024Z,2.20
2022-10-04T07:28:14.997Z,2.20
2022-10-04T07:30:52.884Z,2.47
2022-10-04T07:33:28.347Z,2.75
2022-10-04T07:36:11.225Z,2.78
2022-10-04T07:38:56.021Z,2.83
2022-10-04T07:42:08.766Z,2.33
2022-10-04T07:44:41.042Z,2.85
2022-10-04T07:47:26.361Z,2.67
2022-10-04T07:49:55.810Z,2.83
2022-10-04T07:53:04.869Z,2.75
2022-10-04T07:56:12.611Z,2.88
2022-10-04T07:59:00.903Z,2.83
2022-10-04T08:02:04.189Z,2.70
2022-10-04T08:05:07.132Z,2.33
2022-10-04T08:08:21.052Z,2.42
2022-10-04T08:11:24.950Z,1.95
2022-10-04T08:14:24.414Z,2.28
2022-10-04T08:17:20.584Z,2.58
2022-10-04T08:20:06.042Z,2.15
2022-10-04T08:23:09.626Z,2.10
2022-10-04T08:26:05.183Z,2.88
2022-10-04T08:29:28.714Z,2.50
2022-10-04T08:32:30.511Z,2.30
2022-10-04T08:35:28.174Z,2.13
2022-10-04T08:38:18.116Z,2.30
2022-10-04T08:40:57.648Z,2.40
2022-10-04T08:44:31.338Z,2.55
2022-10-04T08:47:30.219Z,2.00
2022-10-04T08:50:35.184Z,2.03
2022-10-04T08:53:36.694Z,1.88
2022-10-04T08:56:43.977Z,1.58
2022-10-04T08:59:58.071Z,1.88
2022-10-04T09:02:46.536Z,1.80
2022-10-04T09:05:36.370Z,1.70
2022-10-04T09:08:42.271Z,1.65
2022-10-04T09:11:41.589Z,1.42
2022-10-04T09:14:57.067Z,1.60
2022-10-04T09:17:27.877Z,1.60
2022-10-04T09:20:36.809Z,1.80
2022-10-04T09:23:31.348Z,2.05
2022-10-04T09:26:06.833Z,1.52
2022-10-04T09:29:28.321Z,1.92
2022-10-04T09:32:32.717Z,1.40
2022-10-04T09:35:31.321Z,1.50
2022-10-04T09:38:23.185Z,1.67
2022-10-04T09:41:09.975Z,1.38
2022-10-04T09:44:24.275Z,1.30
2022-10-04T09:47:37.963Z,1.52
2022-10-04T09:51:14.194Z,1.80
2022-10-04T09:54:07.348Z,1.77
2022-10-04T09:57:06.950Z,2.40
2022-10-04T10:00:14.772Z,3.00
2022-10-04T10:03:16.003Z,1.95
2022-10-04T10:06:11.720Z,1.80
2022-10-04T10:09:51.626Z,2.25
2022-10-04T10:13:31.813Z,1.90
2022-10-04T10:16:39.462Z,1.70
2022-10-04T10:19:33.706Z,1.35
2022-10-04T10:22:53.040Z,1.75
2022-10-04T10:25:54.033Z,1.77
2022-10-04T10:28:30.845Z,1.60
2022-10-04T10:31:14.280Z,1.63
2022-10-04T10:34:19.194Z,1.60
2022-10-04T10:37:20.194Z,2.10
2022-10-04T10:40:19.612Z,1.60
2022-10-04T10:43:20.867Z,1.40
2022-10-04T10:46:40.484Z,1.87
2022-10-04T10:49:23.388Z,1.38
2022-10-04T10:53:00.318Z,2.00
2022-10-04T10:56:38.364Z,1.50
2022-10-04T10:59:30.297Z,1.80
2022-10-04T11:04:56.189Z,2.03
2022-10-04T11:08:09.566Z,1.23
2022-10-04T11:11:08.065Z,1.45
2022-10-04T11:14:33.463Z,1.58
2022-10-04T11:17:35.290Z,1.52
2022-10-04T11:20:43.530Z,1.40
2022-10-04T11:23:39.975Z,2.00
2022-10-04T11:26:48.069Z,1.63
2022-10-04T11:29:33.305Z,1.50
2022-10-04T11:32:01.151Z,1.60
2022-10-04T11:35:12.975Z,1.55
2022-10-04T11:38:02.485Z,1.55
2022-10-04T11:40:58.478Z,1.70
2022-10-04T11:43:46.795Z,1.65
2022-10-04T11:46:23.592Z,1.40
2022-10-04T11:49:04.854Z,1.20
2022-10-04T11:52:25.435Z,1.50
2022-10-04T11:55:35.270Z,1.33
2022-10-04T11:58:52.867Z,1.33
2022-10-04T12:01:51.788Z,1.50
2022-10-04T12:04:39.154Z,1.35
2022-10-04T12:08:04.064Z,1.60
2022-10-04T12:10:41.945Z,1.35
2022-10-04T12:13:38.059Z,1.52
2022-10-04T12:16:32.175Z,1.23
2022-10-04T12:19:53.930Z,2.38
2022-10-04T12:22:45.324Z,1.73
2022-10-04T12:26:09.851Z,1.42
2022-10-04T12:29:51.800Z,1.40
2022-10-04T12:35:45.995Z,1.50
2022-10-04T12:38:34.386Z,0.50
2022-10-04T12:41:49.010Z,1.05
2022-10-04T12:44:47.096Z,1.20
2022-10-04T12:47:56.542Z,1.00
2022-10-04T12:51:00.910Z,1.10
2022-10-04T12:53:55.484Z,0.95
2022-10-04T12:56:45.745Z,1.00
2022-10-04T12:59:54.160Z,0.98
2022-10-04T13:02:50.662Z,1.00
2022-10-04T13:05:51.392Z,0.88
2022-10-04T13:08:49.157Z,1.00
2022-10-04T13:11:37.048Z,1.20
2022-10-04T13:14:28.361Z,1.00
2022-10-04T13:17:39.529Z,1.10
2022-10-04T13:20:55.521Z,1.05
2022-10-04T13:23:47.656Z,1.30
2022-10-04T13:26:54.467Z,1.20
2022-10-04T13:29:43.886Z,1.20
2022-10-04T13:32:30.584Z,2.05
2022-10-04T13:35:34.421Z,1.30
2022-10-04T13:38:07.221Z,1.60
2022-10-04T13:40:48.572Z,1.95
2022-10-04T13:43:45.807Z,1.25
2022-10-04T13:46:55.674Z,1.48
2022-10-04T13:49:59.109Z,1.75
2022-10-04T13:53:00.875Z,1.17
2022-10-04T13:56:04.245Z,1.60
2022-10-04T13:58:42.012Z,1.60
2022-10-04T14:01:39.678Z,1.80
2022-10-04T14:04:17.033Z,1.67
2022-10-04T14:07:22.305Z,2.25
2022-10-04T14:10:44.336Z,2.08
2022-10-04T14:13:45.588Z,2.08
2022-10-04T14:16:45.281Z,2.00
2022-10-04T14:19:38.805Z,2.00
2022-10-04T14:22:37.738Z,2.08
2022-10-04T14:25:44.028Z,2.28
2022-10-04T14:28:58.470Z,1.73
2022-10-04T14:31:46.800Z,2.22
2022-10-04T14:34:57.385Z,1.90
2022-10-04T14:38:08.578Z,1.90
2022-10-04T14:41:20.208Z,1.65
2022-10-04T14:44:22.073Z,1.90
2022-10-04T14:47:28.775Z,2.40
2022-10-04T14:50:21.924Z,1.90
2022-10-04T14:53:28.233Z,2.00
2022-10-04T14:56:11.385Z,3.72
2022-10-04T14:59:08.100Z,3.30
2022-10-04T15:01:45.727Z,3.13
2022-10-04T15:04:41.506Z,2.60
2022-10-04T15:07:30.739Z,2.38
2022-10-04T15:10:23.948Z,2.67
2022-10-04T15:13:24.265Z,2.85
2022-10-04T15:16:14.657Z,2.80
2022-10-04T15:18:56.920Z,2.67
2022-10-04T15:21:57.507Z,1.90
2022-10-04T15:24:44.581Z,2.25
2022-10-04T15:27:36.082Z,2.45
2022-10-04T15:30:30.909Z,2.03
2022-10-04T15:33:23.980Z,2.40
2022-10-04T15:35:58.134Z,2.22
2022-10-04T15:38:37.794Z,2.20
2022-10-04T15:41:49.447Z,2.10
2022-10-04T15:45:12.662Z,1.80
2022-10-04T15:48:21.188Z,1.95
2022-10-04T15:51:59.190Z,2.65
2022-10-04T15:55:09.945Z,2.30
2022-10-04T15:58:15.606Z,2.78
2022-10-04T16:01:22.981Z,3.17
2022-10-04T16:04:17.016Z,3.45
2022-10-04T16:07:08.811Z,2.58
2022-10-04T16:12:36.123Z,2.63
2022-10-04T16:15:32.413Z,2.90
2022-10-04T16:18:48.952Z,2.90
2022-10-04T16:21:43.843Z,2.70
2022-10-04T16:24:18.441Z,2.90
2022-10-04T16:26:56.079Z,3.10
2022-10-04T16:29:35.687Z,2.80
2022-10-04T16:32:29.396Z,3.42
2022-10-04T16:35:07.942Z,2.80
2022-10-04T16:38:04.245Z,2.95
2022-10-04T16:40:58.904Z,2.83
2022-10-04T16:43:30.368Z,2.30
2022-10-04T16:46:24.872Z,2.50
2022-10-04T16:49:16.738Z,2.20
2022-10-04T16:51:50.603Z,2.47
2022-10-04T16:54:38.452Z,2.67
2022-10-04T16:57:19.818Z,2.13
2022-10-04T16:59:55.684Z,2.65
2022-10-04T17:03:04.349Z,2.33
2022-10-04T17:06:17.658Z,2.58
2022-10-04T17:09:27.838Z,2.53
2022-10-04T17:12:35.666Z,3.20
2022-10-04T17:15:27.806Z,3.55
2022-10-04T17:18:04.244Z,3.70
2022-10-04T17:20:41.254Z,3.58
2022-10-04T17:24:17.485Z,3.70
2022-10-04T17:27:18.359Z,3.65
2022-10-04T17:30:12.787Z,4.55
2022-10-04T17:32:47.271Z,2.83
2022-10-04T17:35:54.064Z,3.22
2022-10-04T17:38:54.667Z,3.05
2022-10-04T17:42:14.643Z,2.80
2022-10-04T17:45:21.226Z,3.10
2022-10-04T17:48:48.765Z,2.92
2022-10-04T17:51:41.897Z,3.22
2022-10-04T17:55:11.402Z,3.30
2022-10-04T17:58:02.164Z,3.85
2022-10-04T18:01:18.217Z,9.30
2022-10-04T18:03:54.889Z,39.40
2022-10-04T18:06:44.483Z,24.90
2022-10-04T18:09:39.971Z,13.50
2022-10-04T18:12:47.042Z,5.15
2022-10-04T18:15:34.018Z,3.10
2022-10-04T18:18:20.028Z,3.00
2022-10-04T18:20:57.105Z,2.65
2022-10-04T18:23:36.624Z,3.30
2022-10-04T18:26:11.139Z,2.95
2022-10-04T18:28:41.778Z,3.25
2022-10-04T18:31:31.015Z,3.23
2022-10-04T18:34:11.216Z,3.88
2022-10-04T18:36:54.427Z,3.85
2022-10-04T18:39:24.735Z,4.20
2022-10-04T18:42:25.328Z,4.65
2022-10-04T18:45:02.124Z,4.60
2022-10-04T18:47:41.554Z,4.80
2022-10-04T18:50:48.737Z,5.38
2022-10-04T18:53:44.392Z,5.63
2022-10-04T18:56:13.368Z,6.25
2022-10-04T18:59:06.387Z,6.88
2022-10-04T19:02:01.962Z,6.10
2022-10-04T19:05:16.052Z,4.13
2022-10-04T19:08:08.332Z,4.55
2022-10-04T19:13:16.131Z,3.65
2022-10-04T19:16:39.234Z,3.80
2022-10-04T19:19:24.429Z,3.65
2022-10-04T19:22:27.757Z,3.55
2022-10-04T19:25:32.959Z,4.40
2022-10-04T19:28:27.005Z,4.45
2022-10-04T19:31:14.006Z,3.92
2022-10-04T19:34:14.882Z,4.18
2022-10-04T19:36:52.009Z,4.22
2022-10-04T19:39:58.669Z,4.63
2022-10-04T19:42:46.661Z,4.25
2022-10-04T19:45:39.094Z,4.07
2022-10-04T19:48:25.955Z,3.90
2022-10-04T19:51:15.900Z,4.03
2022-10-04T19:53:46.084Z,4.60
2022-10-04T19:56:22.028Z,4.68
2022-10-04T19:59:10.984Z,4.45
2022-10-04T20:01:56.023Z,4.55
2022-10-04T20:04:39.047Z,4.68
2022-10-04T20:07:27.932Z,4.32
2022-10-04T20:10:21.509Z,4.28
2022-10-04T20:13:12.474Z,4.70
2022-10-04T20:15:42.867Z,4.72
2022-10-04T20:18:32.495Z,5.43
2022-10-04T20:21:00.675Z,4.85
2022-10-04T20:23:40.989Z,4.55
2022-10-04T20:26:10.599Z,4.28
2022-10-04T20:28:42.855Z,4.82
2022-10-04T20:31:31.067Z,4.03
2022-10-04T20:34:37.805Z,4.13
2022-10-04T20:37:08.617Z,4.20
2022-10-04T20:39:43.516Z,5.50
2022-10-04T20:43:10.972Z,5.93
2022-10-04T20:45:53.151Z,4.93
2022-10-04T20:48:28.036Z,4.90
2022-10-04T20:50:56.731Z,6.40
2022-10-04T20:53:32.331Z,9.93
2022-10-04T20:56:13.872Z,8.30
2022-10-04T20:58:42.053Z,8.45
2022-10-04T21:01:38.172Z,6.38
2022-10-04T21:04:33.955Z,5.50
2022-10-04T21:07:06.143Z,4.78
2022-10-04T21:09:37.385Z,5.00
2022-10-04T21:12:07.996Z,5.30
2022-10-04T21:14:38.195Z,4.47
2022-10-04T21:17:29.069Z,4.90
2022-10-04T21:19:57.387Z,4.75
2022-10-04T21:22:31.046Z,4.68
2022-10-04T21:25:06.325Z,4.85
2022-10-04T21:27:36.887Z,4.80
2022-10-04T21:30:17.181Z,5.07
2022-10-04T21:32:46.200Z,4.18
2022-10-04T21:35:14.251Z,4.97
2022-10-04T21:37:43.025Z,3.90
2022-10-04T21:40:13.315Z,4.38
2022-10-04T21:42:41.849Z,4.60
2022-10-04T21:45:10.308Z,5.20
2022-10-04T21:47:38.171Z,6.53
2022-10-04T21:50:06.638Z,8.23
2022-10-04T21:52:34.701Z,10.32
2022-10-04T21:55:02.560Z,10.82
2022-10-04T21:57:35.376Z,9.50
2022-10-04T22:01:19.715Z,8.90
2022-10-04T22:03:47.972Z,8.10
2022-10-04T22:06:17.740Z,7.90
2022-10-04T22:08:46.055Z,9.02
2022-10-04T22:11:14.221Z,9.13
2022-10-04T22:13:42.703Z,8.27
2022-10-04T22:16:11.266Z,8.48
2022-10-04T22:18:39.414Z,9.13
2022-10-04T22:21:07.565Z,9.35
2022-10-04T22:23:43.034Z,9.95
2022-10-04T22:26:17.724Z,10.85
2022-10-04T22:28:51.419Z,8.65
2022-10-04T22:31:22.599Z,9.05
2022-10-04T22:33:51.471Z,8.27
2022-10-04T22:36:40.249Z,8.65
2022-10-04T22:39:16.066Z,8.52
2022-10-04T22:42:01.493Z,10.00
2022-10-04T22:44:38.476Z,10.68
2022-10-04T22:47:13.601Z,10.35
2022-10-04T22:49:50.207Z,9.25
2022-10-04T22:52:22.392Z,6.63
2022-10-04T22:54:53.913Z,6.25
2022-10-04T22:57:21.884Z,5.88
2022-10-04T22:59:53.922Z,5.32
2022-10-04T23:02:32.259Z,5.05
2022-10-04T23:05:10.156Z,5.30
2022-10-04T23:07:38.772Z,4.90
2022-10-04T23:10:08.090Z,4.78
2022-10-04T23:12:36.457Z,5.53
2022-10-04T23:15:06.477Z,5.25
2022-10-04T23:17:39.056Z,5.05
2022-10-04T23:20:20.443Z,5.00
2022-10-04T23:22:55.114Z,5.78
2022-10-04T23:25:30.532Z,5.47
2022-10-04T23:28:19.742Z,5.53
2022-10-04T23:31:05.227Z,5.07
2022-10-04T23:33:34.668Z,5.30
2022-10-04T23:36:03.141Z,5.57
2022-10-04T23:38:31.486Z,5.53
2022-10-04T23:41:00.440Z,5.95
2022-10-04T23:43:31.832Z,5.95
2022-10-04T23:45:59.929Z,5.90
2022-10-04T23:48:32.347Z,5.70
2022-10-04T23:51:01.006Z,5.97
2022-10-04T23:53:32.511Z,5.65
2022-10-04T23:56:06.444Z,5.78
2022-10-04T23:58:39.552Z,6.00
